createdAt,value
2019-06-26T00:00:46.511Z,23.10
2019-06-26T00:03:19.900Z,23.08
2019-06-26T00:05:52.879Z,23.09
2019-06-26T00:08:25.835Z,23.08
2019-06-26T00:10:59.335Z,23.07
2019-06-26T00:13:32.330Z,23.12
2019-06-26T00:16:05.411Z,23.09
2019-06-26T00:18:38.562Z,22.98
2019-06-26T00:21:11.635Z,22.98
2019-06-26T00:23:44.620Z,22.79
2019-06-26T00:26:17.528Z,22.79
2019-06-26T00:28:50.469Z,22.71
2019-06-26T00:31:23.532Z,22.62
2019-06-26T00:33:56.583Z,22.54
2019-06-26T00:36:29.885Z,22.50
2019-06-26T00:39:03.305Z,22.45
2019-06-26T00:41:36.352Z,22.40
2019-06-26T00:44:09.340Z,22.35
2019-06-26T00:46:42.274Z,22.30
2019-06-26T00:49:15.250Z,22.24
2019-06-26T00:51:48.172Z,22.22
2019-06-26T00:54:21.099Z,22.22
2019-06-26T00:56:54.117Z,22.23
2019-06-26T00:59:27.049Z,22.27
2019-06-26T01:02:00.102Z,22.29
2019-06-26T01:04:33.042Z,22.28
2019-06-26T01:07:06.064Z,22.29
2019-06-26T01:09:39.086Z,22.26
2019-06-26T01:12:12.011Z,22.26
2019-06-26T01:14:45.334Z,22.25
2019-06-26T01:17:18.264Z,22.19
2019-06-26T01:19:51.363Z,22.08
2019-06-26T01:22:24.266Z,22.08
2019-06-26T01:24:57.594Z,21.99
2019-06-26T01:27:30.490Z,21.94
2019-06-26T01:30:03.936Z,21.87
2019-06-26T01:32:36.975Z,21.85
2019-06-26T01:35:10.155Z,21.79
2019-06-26T01:37:43.131Z,21.75
2019-06-26T01:40:16.365Z,21.69
2019-06-26T01:42:49.350Z,21.54
2019-06-26T01:45:22.282Z,21.54
2019-06-26T01:47:55.178Z,21.51
2019-06-26T01:50:28.519Z,21.47
2019-06-26T01:53:02.333Z,21.43
2019-06-26T01:55:35.467Z,21.37
2019-06-26T01:58:08.556Z,21.37
2019-06-26T02:00:41.531Z,21.31
2019-06-26T02:03:14.454Z,21.30
2019-06-26T02:05:47.431Z,21.27
2019-06-26T02:08:20.641Z,21.24
2019-06-26T02:10:53.577Z,21.22
2019-06-26T02:13:26.790Z,21.19
2019-06-26T02:15:59.859Z,21.18
2019-06-26T02:18:32.995Z,21.15
2019-06-26T02:21:06.137Z,21.10
2019-06-26T02:23:39.214Z,21.05
2019-06-26T02:26:12.623Z,21.02
2019-06-26T02:28:45.572Z,20.99
2019-06-26T02:31:18.720Z,20.97
2019-06-26T02:33:51.729Z,20.85
2019-06-26T02:36:24.740Z,20.83
2019-06-26T02:38:58.109Z,20.83
2019-06-26T02:41:31.067Z,20.76
2019-06-26T02:44:04.239Z,20.75
2019-06-26T02:46:37.831Z,20.75
2019-06-26T02:49:10.824Z,20.83
2019-06-26T02:51:44.122Z,21.02
2019-06-26T02:54:17.518Z,21.09
2019-06-26T02:56:50.543Z,21.14
2019-06-26T02:59:23.577Z,21.14
2019-06-26T03:01:56.678Z,21.23
2019-06-26T03:04:29.693Z,21.26
2019-06-26T03:07:03.039Z,21.31
2019-06-26T03:09:36.042Z,21.40
2019-06-26T03:12:09.198Z,21.38
2019-06-26T03:14:42.143Z,21.43
2019-06-26T03:17:15.199Z,21.41
2019-06-26T03:19:48.162Z,21.41
2019-06-26T03:22:21.523Z,21.48
2019-06-26T03:24:54.534Z,21.50
2019-06-26T03:27:27.504Z,21.52
2019-06-26T03:30:00.586Z,21.53
2019-06-26T03:32:34.095Z,21.52
2019-06-26T03:35:07.151Z,21.50
2019-06-26T03:37:40.215Z,21.51
2019-06-26T03:40:13.540Z,21.48
2019-06-26T03:42:46.581Z,21.42
2019-06-26T03:45:25.699Z,21.42
2019-06-26T03:47:54.640Z,21.34
2019-06-26T03:50:27.722Z,21.23
2019-06-26T03:53:02.104Z,21.18
2019-06-26T03:55:35.265Z,21.10
2019-06-26T03:58:08.275Z,21.01
2019-06-26T04:00:41.961Z,20.87
2019-06-26T04:03:15.010Z,20.83
2019-06-26T04:05:47.908Z,20.72
2019-06-26T04:08:20.933Z,20.63
2019-06-26T04:10:53.916Z,20.50
2019-06-26T04:13:27.188Z,20.50
2019-06-26T04:16:00.237Z,20.42
2019-06-26T04:18:33.277Z,20.40
2019-06-26T04:21:06.714Z,20.33
2019-06-26T04:23:41.334Z,20.33
2019-06-26T04:26:14.326Z,20.22
2019-06-26T04:28:47.372Z,20.19
2019-06-26T04:31:20.447Z,20.14
2019-06-26T04:33:53.663Z,20.03
2019-06-26T04:36:26.554Z,20.03
2019-06-26T04:38:59.594Z,19.94
2019-06-26T04:41:32.671Z,19.94
2019-06-26T04:44:06.004Z,19.98
2019-06-26T04:46:38.906Z,19.98
2019-06-26T04:49:11.974Z,19.96
2019-06-26T04:51:44.935Z,19.96
2019-06-26T04:54:17.900Z,19.94
2019-06-26T04:56:50.816Z,19.86
2019-06-26T04:59:24.252Z,19.86
2019-06-26T05:01:57.153Z,19.95
2019-06-26T05:04:30.106Z,19.90
2019-06-26T05:07:03.134Z,19.90
2019-06-26T05:09:36.286Z,19.97
2019-06-26T05:12:09.582Z,19.94
2019-06-26T05:14:42.580Z,19.95
2019-06-26T05:17:15.884Z,19.95
2019-06-26T05:19:48.757Z,19.99
2019-06-26T05:22:21.801Z,20.04
2019-06-26T05:24:55.017Z,20.04
2019-06-26T05:27:28.028Z,20.03
2019-06-26T05:30:00.965Z,20.07
2019-06-26T05:32:34.211Z,20.07
2019-06-26T05:35:08.083Z,20.11
2019-06-26T05:37:41.455Z,20.11
2019-06-26T05:40:16.425Z,20.15
2019-06-26T05:42:49.857Z,20.20
2019-06-26T05:45:23.020Z,20.20
2019-06-26T05:47:55.948Z,20.25
2019-06-26T05:50:29.017Z,20.25
2019-06-26T05:53:01.908Z,20.36
2019-06-26T05:55:35.129Z,20.36
2019-06-26T05:58:08.071Z,20.40
2019-06-26T06:00:41.728Z,20.38
2019-06-26T06:03:14.686Z,20.37
2019-06-26T06:05:47.629Z,20.37
2019-06-26T06:08:20.520Z,20.39
2019-06-26T06:10:53.522Z,20.37
2019-06-26T06:13:26.407Z,20.48
2019-06-26T06:15:59.451Z,20.57
2019-06-26T06:18:32.419Z,20.62
2019-06-26T06:21:05.479Z,20.70
2019-06-26T06:23:38.384Z,20.70
2019-06-26T06:26:11.317Z,20.71
2019-06-26T06:28:44.306Z,20.89
2019-06-26T06:31:17.255Z,20.90
2019-06-26T06:33:50.221Z,20.90
2019-06-26T06:36:23.248Z,20.90
2019-06-26T06:38:56.440Z,20.97
2019-06-26T06:41:29.349Z,21.04
2019-06-26T06:44:02.609Z,21.22
2019-06-26T06:46:35.526Z,21.31
2019-06-26T06:49:08.441Z,21.40
2019-06-26T06:51:41.471Z,21.40
2019-06-26T06:54:14.677Z,21.53
2019-06-26T06:56:47.658Z,21.64
2019-06-26T06:59:20.741Z,21.64
2019-06-26T07:01:53.921Z,21.74
2019-06-26T07:04:26.919Z,21.74
2019-06-26T07:06:59.923Z,21.67
2019-06-26T07:09:33.127Z,21.77
2019-06-26T07:12:06.086Z,21.77
2019-06-26T07:14:39.003Z,22.05
2019-06-26T07:17:20.699Z,22.11
2019-06-26T07:19:46.633Z,22.11
2019-06-26T07:22:19.698Z,22.15
2019-06-26T07:24:52.672Z,22.24
2019-06-26T07:27:25.630Z,22.51
2019-06-26T07:29:58.519Z,22.51
2019-06-26T07:32:31.523Z,22.60
2019-06-26T07:35:05.255Z,22.70
2019-06-26T07:37:38.149Z,22.78
2019-06-26T07:40:11.310Z,22.78
2019-06-26T07:42:44.236Z,22.79
2019-06-26T07:45:17.273Z,22.85
2019-06-26T07:47:50.305Z,22.99
2019-06-26T07:50:23.364Z,22.98
2019-06-26T07:52:56.377Z,22.98
2019-06-26T07:55:29.357Z,23.21
2019-06-26T07:58:02.412Z,23.21
2019-06-26T08:00:35.455Z,23.34
2019-06-26T08:03:08.324Z,23.47
2019-06-26T08:05:43.005Z,23.53
2019-06-26T08:08:16.186Z,23.55
2019-06-26T08:10:49.686Z,23.72
2019-06-26T08:13:22.787Z,23.82
2019-06-26T08:15:56.127Z,24.01
2019-06-26T08:18:29.071Z,24.16
2019-06-26T08:21:12.001Z,24.21
2019-06-26T08:23:36.795Z,24.39
2019-06-26T08:26:10.027Z,24.70
2019-06-26T08:28:43.000Z,24.96
2019-06-26T08:31:15.910Z,26.00
2019-06-26T08:33:48.858Z,28.06
2019-06-26T08:36:21.872Z,30.59
2019-06-26T08:38:54.816Z,30.59
2019-06-26T08:41:27.818Z,30.62
2019-06-26T08:44:00.747Z,30.62
2019-06-26T08:46:33.921Z,30.80
2019-06-26T08:49:21.054Z,30.95
2019-06-26T08:51:42.182Z,31.54
2019-06-26T08:54:15.075Z,31.78
2019-06-26T08:56:47.920Z,31.63
2019-06-26T08:59:20.801Z,31.64
2019-06-26T09:01:53.664Z,30.65
2019-06-26T09:04:26.545Z,29.95
2019-06-26T09:06:59.432Z,29.79
2019-06-26T09:09:32.553Z,29.79
2019-06-26T09:12:05.486Z,30.30
2019-06-26T09:14:38.391Z,30.39
2019-06-26T09:17:11.257Z,31.62
2019-06-26T09:19:44.138Z,30.97
2019-06-26T09:22:16.996Z,31.27
2019-06-26T09:24:50.207Z,30.41
2019-06-26T09:27:23.654Z,29.11
2019-06-26T09:29:56.654Z,29.44
2019-06-26T09:32:29.584Z,30.17
2019-06-26T09:35:02.668Z,28.69
2019-06-26T09:37:35.680Z,28.68
2019-06-26T09:40:09.059Z,28.31
2019-06-26T09:42:41.935Z,27.58
2019-06-26T09:45:15.307Z,28.12
2019-06-26T09:47:48.462Z,25.38
2019-06-26T09:50:21.721Z,25.38
2019-06-26T09:52:54.910Z,24.46
2019-06-26T09:55:28.118Z,24.19
2019-06-26T09:58:01.185Z,23.63
2019-06-26T10:00:34.643Z,23.08
2019-06-26T10:03:07.664Z,22.76
2019-06-26T10:05:41.377Z,22.50
2019-06-26T10:08:14.365Z,22.50
2019-06-26T10:10:47.732Z,22.37
2019-06-26T10:13:21.091Z,22.35
2019-06-26T10:15:54.580Z,22.33
2019-06-26T10:18:27.545Z,22.33
2019-06-26T10:21:00.584Z,22.52
2019-06-26T10:23:33.491Z,22.43
2019-06-26T10:26:07.768Z,22.29
2019-06-26T10:28:40.750Z,22.06
2019-06-26T10:31:13.687Z,22.06
2019-06-26T10:33:46.715Z,22.10
2019-06-26T10:36:19.623Z,22.25
2019-06-26T10:38:52.578Z,22.44
2019-06-26T10:41:25.534Z,22.44
2019-06-26T10:43:58.441Z,22.38
2019-06-26T10:46:31.426Z,21.97
2019-06-26T10:49:04.492Z,22.76
2019-06-26T10:51:37.521Z,22.76
2019-06-26T10:54:10.449Z,23.02
2019-06-26T10:56:43.757Z,23.01
2019-06-26T10:59:16.672Z,23.40
2019-06-26T11:01:49.594Z,23.37
2019-06-26T11:04:22.522Z,23.35
2019-06-26T11:06:55.458Z,23.19
2019-06-26T11:09:28.410Z,23.35
2019-06-26T11:12:01.335Z,24.60
2019-06-26T11:14:34.310Z,24.92
2019-06-26T11:17:07.305Z,26.58
2019-06-26T11:19:44.210Z,26.68
2019-06-26T11:22:14.944Z,26.68
2019-06-26T11:24:48.095Z,26.06
2019-06-26T11:27:20.993Z,25.74
2019-06-26T11:29:53.850Z,25.75
2019-06-26T11:32:26.708Z,28.19
2019-06-26T11:34:59.543Z,28.19
2019-06-26T11:37:32.446Z,29.71
2019-06-26T11:40:05.936Z,29.63
2019-06-26T11:42:38.822Z,29.43
2019-06-26T11:45:12.593Z,29.56
2019-06-26T11:47:46.116Z,30.12
2019-06-26T11:50:19.648Z,30.28
2019-06-26T11:52:52.734Z,30.83
2019-06-26T11:55:25.653Z,30.93
2019-06-26T11:57:58.512Z,31.17
2019-06-26T12:00:31.455Z,32.49
2019-06-26T12:03:04.643Z,32.49
2019-06-26T12:05:37.494Z,32.07
2019-06-26T12:08:10.360Z,31.24
2019-06-26T12:10:43.188Z,31.47
2019-06-26T12:13:16.333Z,31.21
2019-06-26T12:15:49.186Z,32.15
2019-06-26T12:18:22.044Z,32.61
2019-06-26T12:20:54.906Z,32.38
2019-06-26T12:23:27.813Z,31.97
2019-06-26T12:26:00.665Z,32.72
2019-06-26T12:28:33.537Z,33.33
2019-06-26T12:31:06.357Z,33.43
2019-06-26T12:33:39.735Z,33.42
2019-06-26T12:36:12.569Z,33.42
2019-06-26T12:38:45.440Z,33.95
2019-06-26T12:41:18.274Z,33.95
2019-06-26T12:43:51.173Z,33.93
2019-06-26T12:46:24.198Z,33.34
2019-06-26T12:48:57.072Z,32.63
2019-06-26T12:51:29.880Z,32.63
2019-06-26T12:54:02.813Z,32.93
2019-06-26T12:56:35.644Z,33.64
2019-06-26T12:59:08.506Z,32.45
2019-06-26T13:01:41.316Z,33.12
2019-06-26T13:04:14.458Z,33.28
2019-06-26T13:06:47.576Z,33.84
2019-06-26T13:09:20.437Z,33.84
2019-06-26T13:11:53.301Z,33.37
2019-06-26T13:14:26.208Z,33.49
2019-06-26T13:16:59.325Z,33.44
2019-06-26T13:19:32.469Z,33.42
2019-06-26T13:22:05.397Z,33.41
2019-06-26T13:24:38.273Z,32.66
2019-06-26T13:27:11.342Z,33.46
2019-06-26T13:29:44.214Z,32.78
2019-06-26T13:32:17.201Z,32.37
2019-06-26T13:34:50.585Z,32.63
2019-06-26T13:37:23.476Z,32.06
2019-06-26T13:39:56.397Z,31.54
2019-06-26T13:42:29.218Z,31.39
2019-06-26T13:45:02.361Z,31.43
2019-06-26T13:47:35.221Z,31.13
2019-06-26T13:50:08.141Z,31.24
2019-06-26T13:52:40.963Z,31.31
2019-06-26T13:55:14.083Z,31.38
2019-06-26T13:57:47.264Z,31.80
2019-06-26T14:00:20.642Z,31.00
2019-06-26T14:02:53.545Z,31.00
2019-06-26T14:05:29.380Z,30.92
2019-06-26T14:08:00.977Z,31.01
2019-06-26T14:10:33.934Z,30.72
2019-06-26T14:13:07.400Z,30.57
2019-06-26T14:15:40.280Z,30.81
2019-06-26T14:18:13.119Z,31.50
2019-06-26T14:20:45.993Z,30.61
2019-06-26T14:23:18.872Z,30.05
2019-06-26T14:25:51.870Z,30.05
2019-06-26T14:28:25.135Z,29.98
2019-06-26T14:30:58.082Z,29.30
2019-06-26T14:33:31.402Z,29.48
2019-06-26T14:36:04.435Z,29.52
2019-06-26T14:38:37.326Z,29.93
2019-06-26T14:41:10.290Z,29.53
2019-06-26T14:43:43.244Z,28.71
2019-06-26T14:46:16.135Z,27.48
2019-06-26T14:48:48.985Z,27.09
2019-06-26T14:51:21.946Z,26.27
2019-06-26T14:53:55.145Z,25.73
2019-06-26T14:56:28.060Z,25.73
2019-06-26T14:59:01.317Z,25.74
2019-06-26T15:01:34.256Z,25.66
2019-06-26T15:04:07.221Z,25.66
2019-06-26T15:06:40.085Z,25.50
2019-06-26T15:09:13.115Z,25.50
2019-06-26T15:11:46.108Z,25.29
2019-06-26T15:14:18.947Z,25.08
2019-06-26T15:16:51.824Z,25.12
2019-06-26T15:19:24.683Z,24.93
2019-06-26T15:21:58.920Z,24.70
2019-06-26T15:24:32.154Z,24.70
2019-06-26T15:27:05.078Z,24.72
2019-06-26T15:29:37.962Z,24.62
2019-06-26T15:32:10.848Z,24.62
2019-06-26T15:34:43.699Z,24.52
2019-06-26T15:37:16.567Z,24.13
2019-06-26T15:39:49.401Z,24.32
2019-06-26T15:42:22.248Z,24.30
2019-06-26T15:44:55.086Z,24.24
2019-06-26T15:47:28.304Z,24.29
2019-06-26T15:50:01.208Z,24.11
2019-06-26T15:52:34.201Z,23.96
2019-06-26T15:55:07.309Z,23.86
2019-06-26T15:57:40.571Z,23.45
2019-06-26T16:00:14.340Z,23.57
2019-06-26T16:02:47.265Z,23.46
2019-06-26T16:05:20.191Z,23.39
2019-06-26T16:07:53.143Z,23.09
2019-06-26T16:10:25.999Z,22.98
2019-06-26T16:12:59.197Z,22.98
2019-06-26T16:15:32.085Z,22.44
2019-06-26T16:18:04.963Z,22.44
2019-06-26T16:20:37.797Z,22.40
2019-06-26T16:23:10.923Z,22.28
2019-06-26T16:25:43.756Z,22.11
2019-06-26T16:28:16.621Z,22.12
2019-06-26T16:30:49.455Z,21.76
2019-06-26T16:33:22.397Z,21.76
2019-06-26T16:35:55.223Z,21.76
2019-06-26T16:38:28.563Z,21.56
2019-06-26T16:41:01.475Z,21.69
2019-06-26T16:43:34.356Z,21.55
2019-06-26T16:46:07.199Z,21.36
2019-06-26T16:48:40.150Z,21.26
2019-06-26T16:51:12.975Z,21.26
2019-06-26T16:53:45.835Z,21.18
2019-06-26T16:56:18.896Z,21.31
2019-06-26T16:58:51.780Z,21.15
2019-06-26T17:01:24.614Z,21.17
2019-06-26T17:03:57.560Z,21.03
2019-06-26T17:06:30.427Z,21.03
2019-06-26T17:09:04.486Z,21.05
2019-06-26T17:11:37.482Z,20.92
2019-06-26T17:14:10.758Z,20.96
2019-06-26T17:16:43.663Z,20.93
2019-06-26T17:19:16.536Z,20.80
2019-06-26T17:21:49.397Z,20.77
2019-06-26T17:24:22.565Z,20.61
2019-06-26T17:26:55.392Z,20.47
2019-06-26T17:29:28.423Z,20.23
2019-06-26T17:32:01.603Z,20.10
2019-06-26T17:34:34.559Z,19.85
2019-06-26T17:37:07.731Z,19.85
2019-06-26T17:39:40.625Z,19.66
2019-06-26T17:42:13.709Z,19.64
2019-06-26T17:44:46.631Z,19.57
2019-06-26T17:47:19.464Z,19.59
2019-06-26T17:49:52.688Z,19.56
2019-06-26T17:52:25.537Z,19.50
2019-06-26T17:54:58.399Z,19.38
2019-06-26T17:57:31.246Z,19.32
2019-06-26T18:00:05.478Z,19.16
2019-06-26T18:02:38.406Z,19.25
2019-06-26T18:05:11.873Z,19.25
2019-06-26T18:07:44.980Z,19.12
2019-06-26T18:10:17.834Z,19.12
2019-06-26T18:12:50.989Z,19.29
2019-06-26T18:15:23.855Z,19.29
2019-06-26T18:17:56.709Z,19.27
2019-06-26T18:20:29.563Z,19.22
2019-06-26T18:23:07.271Z,19.23
2019-06-26T18:25:37.050Z,19.27
2019-06-26T18:28:09.864Z,19.17
2019-06-26T18:30:42.700Z,19.08
2019-06-26T18:33:15.552Z,19.00
2019-06-26T18:35:48.394Z,18.90
2019-06-26T18:38:21.248Z,18.80
2019-06-26T18:40:54.423Z,18.87
2019-06-26T18:43:27.619Z,19.16
2019-06-26T18:46:00.537Z,18.79
2019-06-26T18:48:33.729Z,18.79
2019-06-26T18:51:06.917Z,18.39
2019-06-26T18:53:52.765Z,18.39
2019-06-26T18:56:14.385Z,18.25
2019-06-26T18:58:47.288Z,18.19
2019-06-26T19:01:20.129Z,18.19
2019-06-26T19:03:53.299Z,18.22
2019-06-26T19:06:26.235Z,18.60
2019-06-26T19:08:59.093Z,18.65
2019-06-26T19:11:31.927Z,18.65
2019-06-26T19:14:04.943Z,18.95
2019-06-26T19:16:38.102Z,18.77
2019-06-26T19:19:12.294Z,18.77
2019-06-26T19:21:45.423Z,18.27
2019-06-26T19:24:18.515Z,18.27
2019-06-26T19:26:51.374Z,18.23
2019-06-26T19:29:24.460Z,18.23
2019-06-26T19:31:57.685Z,18.28
2019-06-26T19:34:30.619Z,18.54
2019-06-26T19:37:03.550Z,18.67
2019-06-26T19:39:36.407Z,18.35
2019-06-26T19:42:09.251Z,18.16
2019-06-26T19:44:42.093Z,18.24
2019-06-26T19:47:14.933Z,18.52
2019-06-26T19:49:48.076Z,18.46
2019-06-26T19:52:20.990Z,18.32
2019-06-26T19:54:53.853Z,18.40
2019-06-26T19:57:26.713Z,18.36
2019-06-26T19:59:59.611Z,18.27
2019-06-26T20:02:32.431Z,18.22
2019-06-26T20:05:06.411Z,18.01
2019-06-26T20:07:39.902Z,18.01
2019-06-26T20:10:14.348Z,17.93
2019-06-26T20:12:47.209Z,17.72
2019-06-26T20:15:20.609Z,17.72
2019-06-26T20:17:53.441Z,17.73
2019-06-26T20:20:26.298Z,17.70
2019-06-26T20:22:59.141Z,17.58
2019-06-26T20:25:32.075Z,17.70
2019-06-26T20:28:05.065Z,17.68
2019-06-26T20:30:37.918Z,17.68
2019-06-26T20:33:10.771Z,17.66
2019-06-26T20:35:43.676Z,17.66
2019-06-26T20:38:16.533Z,17.55
2019-06-26T20:40:49.504Z,17.55
2019-06-26T20:43:22.640Z,17.62
2019-06-26T20:45:55.475Z,17.62
2019-06-26T20:48:28.405Z,17.67
2019-06-26T20:51:01.255Z,17.71
2019-06-26T20:53:34.281Z,17.74
2019-06-26T20:56:07.108Z,18.04
2019-06-26T20:58:41.265Z,18.04
2019-06-26T21:01:14.207Z,17.81
2019-06-26T21:03:47.347Z,17.93
2019-06-26T21:06:20.180Z,17.93
2019-06-26T21:08:53.041Z,17.81
2019-06-26T21:11:25.874Z,17.81
2019-06-26T21:13:58.739Z,17.83
2019-06-26T21:16:31.681Z,17.84
2019-06-26T21:19:04.613Z,17.65
2019-06-26T21:21:37.862Z,17.65
2019-06-26T21:24:10.724Z,17.68
2019-06-26T21:26:43.914Z,17.68
2019-06-26T21:29:16.794Z,17.59
2019-06-26T21:31:49.861Z,17.44
2019-06-26T21:34:25.580Z,17.37
2019-06-26T21:36:58.487Z,17.22
2019-06-26T21:39:31.711Z,17.22
2019-06-26T21:42:04.683Z,17.23
2019-06-26T21:44:37.680Z,17.21
2019-06-26T21:47:10.533Z,17.09
2019-06-26T21:49:43.453Z,17.20
2019-06-26T21:52:16.610Z,17.22
2019-06-26T21:54:49.625Z,17.22
2019-06-26T21:57:22.486Z,17.18
2019-06-26T21:59:55.366Z,17.18
2019-06-26T22:02:28.254Z,17.34
2019-06-26T22:05:01.477Z,17.12
2019-06-26T22:07:34.688Z,16.97
2019-06-26T22:10:08.940Z,16.94
2019-06-26T22:12:42.015Z,16.90
2019-06-26T22:15:15.179Z,16.80
2019-06-26T22:17:48.963Z,16.84
2019-06-26T22:20:22.016Z,16.84
2019-06-26T22:22:55.098Z,16.76
2019-06-26T22:25:27.992Z,16.71
2019-06-26T22:28:00.911Z,16.77
2019-06-26T22:30:34.337Z,16.77
2019-06-26T22:33:07.413Z,16.83
2019-06-26T22:35:40.625Z,16.83
2019-06-26T22:38:13.917Z,16.79
2019-06-26T22:40:46.813Z,16.79
2019-06-26T22:43:19.805Z,16.66
2019-06-26T22:45:52.767Z,16.59
2019-06-26T22:48:26.006Z,16.61
2019-06-26T22:50:58.888Z,16.64
2019-06-26T22:53:32.298Z,16.73
2019-06-26T22:56:08.005Z,16.64
2019-06-26T22:58:40.147Z,16.64
2019-06-26T23:01:13.023Z,16.65
2019-06-26T23:03:45.928Z,16.67
2019-06-26T23:06:18.899Z,16.57
2019-06-26T23:08:51.940Z,16.62
2019-06-26T23:11:24.810Z,16.61
2019-06-26T23:13:57.740Z,16.53
2019-06-26T23:16:30.926Z,16.53
2019-06-26T23:19:04.340Z,16.49
2019-06-26T23:21:37.320Z,16.52
2019-06-26T23:24:10.239Z,16.61
2019-06-26T23:26:43.239Z,16.48
2019-06-26T23:29:16.164Z,16.44
2019-06-26T23:31:49.126Z,16.44
2019-06-26T23:34:22.044Z,16.37
2019-06-26T23:36:54.941Z,16.39
2019-06-26T23:39:27.873Z,16.39
2019-06-26T23:42:00.760Z,16.23
2019-06-26T23:44:33.658Z,16.17
2019-06-26T23:47:07.074Z,16.24
2019-06-26T23:49:39.957Z,16.08
2019-06-26T23:52:12.853Z,16.25
2019-06-26T23:54:46.163Z,16.25
2019-06-26T23:57:19.122Z,16.17
2019-06-26T23:59:52.037Z,16.21
